sensor_id;sensor_type;location;lat;lon;timestamp;P1;durP1;ratioP1;P2;durP2;ratioP2
21014;SDS011;19207;-23.482;-46.500;2023-02-19T00:01:55;3.47;;;2.67;;
21014;SDS011;19207;-23.482;-46.500;2023-02-19T00:04:43;3.45;;;2.78;;
21014;SDS011;19207;-23.482;-46.500;2023-02-19T00:07:30;4.10;;;2.60;;
21014;SDS011;19207;-23.482;-46.500;2023-02-19T00:10:17;4.20;;;2.85;;
21014;SDS011;19207;-23.482;-46.500;2023-02-19T00:13:05;3.17;;;2.50;;
21014;SDS011;19207;-23.482;-46.500;2023-02-19T00:15:52;2.60;;;2.40;;
21014;SDS011;19207;-23.482;-46.500;2023-02-19T00:18:40;2.83;;;2.50;;
21014;SDS011;19207;-23.482;-46.500;2023-02-19T00:21:27;3.37;;;2.90;;
21014;SDS011;19207;-23.482;-46.500;2023-02-19T00:24:15;3.20;;;2.60;;
21014;SDS011;19207;-23.482;-46.500;2023-02-19T00:27:02;4.87;;;3.10;;
21014;SDS011;19207;-23.482;-46.500;2023-02-19T00:29:49;3.75;;;2.70;;
21014;SDS011;19207;-23.482;-46.500;2023-02-19T00:32:37;3.20;;;2.50;;
21014;SDS011;19207;-23.482;-46.500;2023-02-19T00:35:25;5.10;;;3.00;;
21014;SDS011;19207;-23.482;-46.500;2023-02-19T00:38:13;3.90;;;3.10;;
21014;SDS011;19207;-23.482;-46.500;2023-02-19T00:41:00;4.00;;;2.80;;
21014;SDS011;19207;-23.482;-46.500;2023-02-19T00:44:04;4.18;;;3.25;;
21014;SDS011;19207;-23.482;-46.500;2023-02-19T00:46:52;3.83;;;3.30;;
21014;SDS011;19207;-23.482;-46.500;2023-02-19T00:49:40;4.15;;;3.15;;
21014;SDS011;19207;-23.482;-46.500;2023-02-19T00:52:27;8.20;;;4.07;;
21014;SDS011;19207;-23.482;-46.500;2023-02-19T00:55:14;5.65;;;3.30;;
21014;SDS011;19207;-23.482;-46.500;2023-02-19T00:58:02;3.53;;;2.72;;
21014;SDS011;19207;-23.482;-46.500;2023-02-19T01:00:49;3.87;;;2.85;;
21014;SDS011;19207;-23.482;-46.500;2023-02-19T01:03:37;6.00;;;3.22;;
21014;SDS011;19207;-23.482;-46.500;2023-02-19T01:06:27;3.30;;;2.80;;
21014;SDS011;19207;-23.482;-46.500;2023-02-19T01:09:15;6.43;;;2.90;;
21014;SDS011;19207;-23.482;-46.500;2023-02-19T01:12:04;3.97;;;2.97;;
21014;SDS011;19207;-23.482;-46.500;2023-02-19T01:14:51;3.92;;;2.90;;
21014;SDS011;19207;-23.482;-46.500;2023-02-19T01:17:38;3.75;;;2.97;;
21014;SDS011;19207;-23.482;-46.500;2023-02-19T01:20:25;4.10;;;2.90;;
21014;SDS011;19207;-23.482;-46.500;2023-02-19T01:23:12;6.90;;;2.80;;
21014;SDS011;19207;-23.482;-46.500;2023-02-19T01:26:02;4.82;;;3.05;;
21014;SDS011;19207;-23.482;-46.500;2023-02-19T01:28:52;7.68;;;3.60;;
21014;SDS011;19207;-23.482;-46.500;2023-02-19T01:31:40;5.32;;;3.53;;
21014;SDS011;19207;-23.482;-46.500;2023-02-19T01:34:27;6.68;;;3.85;;
21014;SDS011;19207;-23.482;-46.500;2023-02-19T01:37:17;3.55;;;3.22;;
21014;SDS011;19207;-23.482;-46.500;2023-02-19T01:40:05;3.90;;;3.30;;
21014;SDS011;19207;-23.482;-46.500;2023-02-19T01:42:52;5.10;;;3.10;;
21014;SDS011;19207;-23.482;-46.500;2023-02-19T01:45:42;4.72;;;3.47;;
21014;SDS011;19207;-23.482;-46.500;2023-02-19T01:48:30;4.93;;;3.10;;
21014;SDS011;19207;-23.482;-46.500;2023-02-19T01:51:18;4.20;;;3.20;;
21014;SDS011;19207;-23.482;-46.500;2023-02-19T01:54:06;6.65;;;3.78;;
21014;SDS011;19207;-23.482;-46.500;2023-02-19T01:56:55;6.30;;;3.58;;
21014;SDS011;19207;-23.482;-46.500;2023-02-19T01:59:43;6.70;;;3.20;;
21014;SDS011;19207;-23.482;-46.500;2023-02-19T02:02:30;5.45;;;3.45;;
21014;SDS011;19207;-23.482;-46.500;2023-02-19T02:05:27;6.25;;;3.33;;
21014;SDS011;19207;-23.482;-46.500;2023-02-19T02:08:18;5.28;;;3.20;;
21014;SDS011;19207;-23.482;-46.500;2023-02-19T02:11:24;12.85;;;3.30;;
21014;SDS011;19207;-23.482;-46.500;2023-02-19T02:14:11;4.80;;;2.80;;
21014;SDS011;19207;-23.482;-46.500;2023-02-19T02:22:39;4.75;;;3.22;;
21014;SDS011;19207;-23.482;-46.500;2023-02-19T02:31:32;6.60;;;2.72;;
21014;SDS011;19207;-23.482;-46.500;2023-02-19T02:34:26;4.35;;;2.92;;
21014;SDS011;19207;-23.482;-46.500;2023-02-19T02:37:15;5.12;;;2.83;;
21014;SDS011;19207;-23.482;-46.500;2023-02-19T02:40:03;3.50;;;2.70;;
21014;SDS011;19207;-23.482;-46.500;2023-02-19T02:42:50;3.50;;;2.60;;
21014;SDS011;19207;-23.482;-46.500;2023-02-19T02:45:37;4.07;;;2.90;;
21014;SDS011;19207;-23.482;-46.500;2023-02-19T02:48:40;4.72;;;2.67;;
21014;SDS011;19207;-23.482;-46.500;2023-02-19T02:51:33;4.93;;;2.60;;
21014;SDS011;19207;-23.482;-46.500;2023-02-19T02:54:23;2.50;;;2.30;;
21014;SDS011;19207;-23.482;-46.500;2023-02-19T02:57:30;5.32;;;2.20;;
21014;SDS011;19207;-23.482;-46.500;2023-02-19T03:00:17;2.20;;;2.00;;
21014;SDS011;19207;-23.482;-46.500;2023-02-19T03:03:04;1.92;;;1.80;;
21014;SDS011;19207;-23.482;-46.500;2023-02-19T03:05:56;2.85;;;1.62;;
21014;SDS011;19207;-23.482;-46.500;2023-02-19T03:11:41;2.10;;;1.90;;
21014;SDS011;19207;-23.482;-46.500;2023-02-19T03:14:49;3.15;;;1.70;;
21014;SDS011;19207;-23.482;-46.500;2023-02-19T03:18:00;2.33;;;1.90;;
21014;SDS011;19207;-23.482;-46.500;2023-02-19T03:21:06;1.90;;;1.80;;
21014;SDS011;19207;-23.482;-46.500;2023-02-19T03:23:55;3.67;;;2.08;;
21014;SDS011;19207;-23.482;-46.500;2023-02-19T03:27:01;3.58;;;2.15;;
21014;SDS011;19207;-23.482;-46.500;2023-02-19T03:29:51;2.12;;;1.92;;
21014;SDS011;19207;-23.482;-46.500;2023-02-19T03:32:41;2.78;;;1.92;;
21014;SDS011;19207;-23.482;-46.500;2023-02-19T03:35:30;2.20;;;2.00;;
21014;SDS011;19207;-23.482;-46.500;2023-02-19T03:41:15;3.12;;;2.30;;
21014;SDS011;19207;-23.482;-46.500;2023-02-19T03:47:05;2.85;;;2.20;;
21014;SDS011;19207;-23.482;-46.500;2023-02-19T03:55:56;4.53;;;2.40;;
21014;SDS011;19207;-23.482;-46.500;2023-02-19T03:58:54;4.12;;;2.30;;
21014;SDS011;19207;-23.482;-46.500;2023-02-19T04:01:45;2.97;;;2.45;;
21014;SDS011;19207;-23.482;-46.500;2023-02-19T04:04:34;2.40;;;2.20;;
21014;SDS011;19207;-23.482;-46.500;2023-02-19T04:07:22;6.12;;;2.30;;
21014;SDS011;19207;-23.482;-46.500;2023-02-19T04:10:11;2.92;;;2.00;;
21014;SDS011;19207;-23.482;-46.500;2023-02-19T04:13:01;3.53;;;1.87;;
21014;SDS011;19207;-23.482;-46.500;2023-02-19T04:15:49;2.17;;;1.80;;
21014;SDS011;19207;-23.482;-46.500;2023-02-19T04:18:37;1.90;;;1.70;;
21014;SDS011;19207;-23.482;-46.500;2023-02-19T04:21:27;1.85;;;1.75;;
21014;SDS011;19207;-23.482;-46.500;2023-02-19T04:24:20;2.55;;;1.75;;
21014;SDS011;19207;-23.482;-46.500;2023-02-19T04:27:09;1.60;;;1.50;;
21014;SDS011;19207;-23.482;-46.500;2023-02-19T04:29:57;2.10;;;1.90;;
21014;SDS011;19207;-23.482;-46.500;2023-02-19T04:32:44;2.10;;;1.90;;
21014;SDS011;19207;-23.482;-46.500;2023-02-19T04:35:32;2.15;;;1.80;;
21014;SDS011;19207;-23.482;-46.500;2023-02-19T04:38:19;1.80;;;1.70;;
21014;SDS011;19207;-23.482;-46.500;2023-02-19T04:41:07;1.95;;;1.70;;
21014;SDS011;19207;-23.482;-46.500;2023-02-19T04:43:55;1.70;;;1.60;;
21014;SDS011;19207;-23.482;-46.500;2023-02-19T04:46:42;1.70;;;1.60;;
21014;SDS011;19207;-23.482;-46.500;2023-02-19T04:49:30;1.95;;;1.73;;
21014;SDS011;19207;-23.482;-46.500;2023-02-19T04:52:18;1.95;;;1.60;;
21014;SDS011;19207;-23.482;-46.500;2023-02-19T04:55:06;3.97;;;1.60;;
21014;SDS011;19207;-23.482;-46.500;2023-02-19T04:57:53;1.87;;;1.77;;
21014;SDS011;19207;-23.482;-46.500;2023-02-19T05:00:40;2.15;;;1.65;;
21014;SDS011;19207;-23.482;-46.500;2023-02-19T05:03:27;1.90;;;1.80;;
21014;SDS011;19207;-23.482;-46.500;2023-02-19T05:06:14;1.80;;;1.70;;
21014;SDS011;19207;-23.482;-46.500;2023-02-19T05:09:02;1.75;;;1.65;;
21014;SDS011;19207;-23.482;-46.500;2023-02-19T05:11:50;2.65;;;2.00;;
21014;SDS011;19207;-23.482;-46.500;2023-02-19T05:14:37;2.22;;;1.70;;
21014;SDS011;19207;-23.482;-46.500;2023-02-19T05:17:24;1.90;;;1.70;;
21014;SDS011;19207;-23.482;-46.500;2023-02-19T05:20:11;10.10;;;1.85;;
21014;SDS011;19207;-23.482;-46.500;2023-02-19T05:22:58;1.70;;;1.60;;
21014;SDS011;19207;-23.482;-46.500;2023-02-19T05:25:49;2.37;;;1.62;;
21014;SDS011;19207;-23.482;-46.500;2023-02-19T05:28:36;2.42;;;1.60;;
21014;SDS011;19207;-23.482;-46.500;2023-02-19T05:31:23;3.17;;;1.70;;
21014;SDS011;19207;-23.482;-46.500;2023-02-19T05:34:10;1.60;;;1.50;;
21014;SDS011;19207;-23.482;-46.500;2023-02-19T05:36:57;1.70;;;1.60;;
21014;SDS011;19207;-23.482;-46.500;2023-02-19T05:39:47;1.80;;;1.70;;
21014;SDS011;19207;-23.482;-46.500;2023-02-19T05:42:34;1.50;;;1.40;;
21014;SDS011;19207;-23.482;-46.500;2023-02-19T05:45:21;1.60;;;1.50;;
21014;SDS011;19207;-23.482;-46.500;2023-02-19T05:48:09;1.60;;;1.50;;
21014;SDS011;19207;-23.482;-46.500;2023-02-19T05:51:04;2.10;;;1.70;;
21014;SDS011;19207;-23.482;-46.500;2023-02-19T05:53:51;2.00;;;1.60;;
21014;SDS011;19207;-23.482;-46.500;2023-02-19T05:56:39;1.58;;;1.48;;
21014;SDS011;19207;-23.482;-46.500;2023-02-19T05:59:26;1.60;;;1.50;;
21014;SDS011;19207;-23.482;-46.500;2023-02-19T06:02:13;1.65;;;1.48;;
21014;SDS011;19207;-23.482;-46.500;2023-02-19T06:05:00;1.50;;;1.40;;
21014;SDS011;19207;-23.482;-46.500;2023-02-19T06:07:48;1.60;;;1.50;;
21014;SDS011;19207;-23.482;-46.500;2023-02-19T06:10:36;1.52;;;1.42;;
21014;SDS011;19207;-23.482;-46.500;2023-02-19T06:13:26;1.60;;;1.50;;
21014;SDS011;19207;-23.482;-46.500;2023-02-19T06:16:13;1.50;;;1.40;;
21014;SDS011;19207;-23.482;-46.500;2023-02-19T06:19:02;1.90;;;1.70;;
21014;SDS011;19207;-23.482;-46.500;2023-02-19T06:21:49;1.98;;;1.70;;
21014;SDS011;19207;-23.482;-46.500;2023-02-19T06:24:36;1.80;;;1.70;;
21014;SDS011;19207;-23.482;-46.500;2023-02-19T06:27:23;2.58;;;1.70;;
21014;SDS011;19207;-23.482;-46.500;2023-02-19T06:30:10;2.47;;;1.80;;
21014;SDS011;19207;-23.482;-46.500;2023-02-19T06:32:58;1.98;;;1.80;;
21014;SDS011;19207;-23.482;-46.500;2023-02-19T06:35:45;1.73;;;1.62;;
21014;SDS011;19207;-23.482;-46.500;2023-02-19T06:38:32;1.90;;;1.70;;
21014;SDS011;19207;-23.482;-46.500;2023-02-19T06:41:19;1.95;;;1.80;;
21014;SDS011;19207;-23.482;-46.500;2023-02-19T06:44:07;1.65;;;1.55;;
21014;SDS011;19207;-23.482;-46.500;2023-02-19T06:46:54;1.90;;;1.80;;
21014;SDS011;19207;-23.482;-46.500;2023-02-19T06:49:41;1.80;;;1.70;;
21014;SDS011;19207;-23.482;-46.500;2023-02-19T06:52:28;1.70;;;1.60;;
21014;SDS011;19207;-23.482;-46.500;2023-02-19T06:55:15;1.80;;;1.70;;
21014;SDS011;19207;-23.482;-46.500;2023-02-19T06:58:02;1.80;;;1.70;;
21014;SDS011;19207;-23.482;-46.500;2023-02-19T07:00:49;2.03;;;1.80;;
21014;SDS011;19207;-23.482;-46.500;2023-02-19T07:03:37;1.80;;;1.70;;
21014;SDS011;19207;-23.482;-46.500;2023-02-19T07:06:24;2.00;;;1.90;;
21014;SDS011;19207;-23.482;-46.500;2023-02-19T07:09:12;1.80;;;1.70;;
21014;SDS011;19207;-23.482;-46.500;2023-02-19T07:11:59;1.80;;;1.70;;
21014;SDS011;19207;-23.482;-46.500;2023-02-19T07:14:47;1.80;;;1.70;;
21014;SDS011;19207;-23.482;-46.500;2023-02-19T07:17:34;4.05;;;1.80;;
21014;SDS011;19207;-23.482;-46.500;2023-02-19T07:20:21;4.65;;;1.70;;
21014;SDS011;19207;-23.482;-46.500;2023-02-19T07:23:08;2.28;;;1.70;;
21014;SDS011;19207;-23.482;-46.500;2023-02-19T07:25:55;1.80;;;1.70;;
21014;SDS011;19207;-23.482;-46.500;2023-02-19T07:28:43;2.20;;;1.80;;
21014;SDS011;19207;-23.482;-46.500;2023-02-19T07:31:30;1.95;;;1.77;;
21014;SDS011;19207;-23.482;-46.500;2023-02-19T07:34:17;2.15;;;1.90;;
21014;SDS011;19207;-23.482;-46.500;2023-02-19T07:37:05;1.90;;;1.80;;
21014;SDS011;19207;-23.482;-46.500;2023-02-19T07:39:52;2.80;;;1.80;;
21014;SDS011;19207;-23.482;-46.500;2023-02-19T07:42:40;2.15;;;1.80;;
21014;SDS011;19207;-23.482;-46.500;2023-02-19T07:45:29;2.37;;;1.77;;
21014;SDS011;19207;-23.482;-46.500;2023-02-19T07:48:16;2.40;;;1.70;;
21014;SDS011;19207;-23.482;-46.500;2023-02-19T07:51:04;2.10;;;1.60;;
21014;SDS011;19207;-23.482;-46.500;2023-02-19T07:53:51;1.98;;;1.80;;
21014;SDS011;19207;-23.482;-46.500;2023-02-19T07:56:39;2.00;;;1.80;;
21014;SDS011;19207;-23.482;-46.500;2023-02-19T07:59:26;4.45;;;1.80;;
21014;SDS011;19207;-23.482;-46.500;2023-02-19T08:02:17;1.80;;;1.70;;
21014;SDS011;19207;-23.482;-46.500;2023-02-19T08:05:23;3.80;;;1.85;;
21014;SDS011;19207;-23.482;-46.500;2023-02-19T08:08:11;2.12;;;1.80;;
21014;SDS011;19207;-23.482;-46.500;2023-02-19T08:11:00;1.75;;;1.62;;
21014;SDS011;19207;-23.482;-46.500;2023-02-19T08:14:07;2.65;;;2.35;;
21014;SDS011;19207;-23.482;-46.500;2023-02-19T08:16:54;1.83;;;1.70;;
21014;SDS011;19207;-23.482;-46.500;2023-02-19T08:19:42;1.98;;;1.70;;
21014;SDS011;19207;-23.482;-46.500;2023-02-19T08:22:29;2.75;;;1.60;;
21014;SDS011;19207;-23.482;-46.500;2023-02-19T08:25:16;1.70;;;1.60;;
21014;SDS011;19207;-23.482;-46.500;2023-02-19T08:28:03;1.80;;;1.70;;
21014;SDS011;19207;-23.482;-46.500;2023-02-19T08:30:50;1.70;;;1.60;;
21014;SDS011;19207;-23.482;-46.500;2023-02-19T08:33:38;2.22;;;1.73;;
21014;SDS011;19207;-23.482;-46.500;2023-02-19T08:36:25;3.37;;;1.80;;
21014;SDS011;19207;-23.482;-46.500;2023-02-19T08:39:12;3.78;;;1.70;;
21014;SDS011;19207;-23.482;-46.500;2023-02-19T08:42:00;1.83;;;1.73;;
21014;SDS011;19207;-23.482;-46.500;2023-02-19T08:44:48;1.75;;;1.65;;
21014;SDS011;19207;-23.482;-46.500;2023-02-19T08:47:35;2.62;;;1.90;;
21014;SDS011;19207;-23.482;-46.500;2023-02-19T08:50:22;3.33;;;1.70;;
21014;SDS011;19207;-23.482;-46.500;2023-02-19T08:53:10;5.32;;;1.87;;
21014;SDS011;19207;-23.482;-46.500;2023-02-19T08:55:57;2.00;;;1.80;;
21014;SDS011;19207;-23.482;-46.500;2023-02-19T08:58:44;2.10;;;1.90;;
21014;SDS011;19207;-23.482;-46.500;2023-02-19T09:01:34;1.80;;;1.70;;
21014;SDS011;19207;-23.482;-46.500;2023-02-19T09:04:21;1.70;;;1.58;;
21014;SDS011;19207;-23.482;-46.500;2023-02-19T09:07:09;1.85;;;1.50;;
21014;SDS011;19207;-23.482;-46.500;2023-02-19T09:09:59;1.98;;;1.60;;
21014;SDS011;19207;-23.482;-46.500;2023-02-19T09:12:46;1.70;;;1.60;;
21014;SDS011;19207;-23.482;-46.500;2023-02-19T09:15:33;1.70;;;1.60;;
21014;SDS011;19207;-23.482;-46.500;2023-02-19T09:18:22;2.22;;;1.60;;
21014;SDS011;19207;-23.482;-46.500;2023-02-19T09:21:09;1.70;;;1.60;;
21014;SDS011;19207;-23.482;-46.500;2023-02-19T09:23:56;1.70;;;1.60;;
21014;SDS011;19207;-23.482;-46.500;2023-02-19T09:26:43;1.70;;;1.60;;
21014;SDS011;19207;-23.482;-46.500;2023-02-19T09:29:30;3.15;;;1.80;;
21014;SDS011;19207;-23.482;-46.500;2023-02-19T09:32:19;3.15;;;1.77;;
21014;SDS011;19207;-23.482;-46.500;2023-02-19T09:35:06;2.05;;;1.67;;
21014;SDS011;19207;-23.482;-46.500;2023-02-19T09:37:53;1.70;;;1.60;;
21014;SDS011;19207;-23.482;-46.500;2023-02-19T09:40:40;2.05;;;1.73;;
21014;SDS011;19207;-23.482;-46.500;2023-02-19T09:43:27;1.90;;;1.70;;
21014;SDS011;19207;-23.482;-46.500;2023-02-19T09:49:15;3.03;;;1.80;;
21014;SDS011;19207;-23.482;-46.500;2023-02-19T09:55:34;1.90;;;1.70;;
21014;SDS011;19207;-23.482;-46.500;2023-02-19T09:58:23;2.20;;;1.80;;
21014;SDS011;19207;-23.482;-46.500;2023-02-19T10:01:11;3.10;;;2.40;;
21014;SDS011;19207;-23.482;-46.500;2023-02-19T10:04:02;4.82;;;2.30;;
21014;SDS011;19207;-23.482;-46.500;2023-02-19T10:06:49;2.03;;;1.80;;
21014;SDS011;19207;-23.482;-46.500;2023-02-19T10:09:37;1.80;;;1.70;;
21014;SDS011;19207;-23.482;-46.500;2023-02-19T10:12:28;2.00;;;1.80;;
21014;SDS011;19207;-23.482;-46.500;2023-02-19T10:15:24;1.98;;;1.87;;
21014;SDS011;19207;-23.482;-46.500;2023-02-19T10:18:15;3.00;;;2.00;;
21014;SDS011;19207;-23.482;-46.500;2023-02-19T10:21:03;2.30;;;1.95;;
21014;SDS011;19207;-23.482;-46.500;2023-02-19T10:23:54;1.70;;;1.60;;
21014;SDS011;19207;-23.482;-46.500;2023-02-19T10:26:42;2.08;;;1.90;;
21014;SDS011;19207;-23.482;-46.500;2023-02-19T10:29:29;1.92;;;1.70;;
21014;SDS011;19207;-23.482;-46.500;2023-02-19T10:32:21;1.90;;;1.70;;
21014;SDS011;19207;-23.482;-46.500;2023-02-19T10:35:12;5.43;;;1.80;;
21014;SDS011;19207;-23.482;-46.500;2023-02-19T10:37:59;2.65;;;1.70;;
21014;SDS011;19207;-23.482;-46.500;2023-02-19T10:40:48;2.25;;;1.83;;
21014;SDS011;19207;-23.482;-46.500;2023-02-19T10:43:37;2.97;;;1.70;;
21014;SDS011;19207;-23.482;-46.500;2023-02-19T10:46:28;2.25;;;2.03;;
21014;SDS011;19207;-23.482;-46.500;2023-02-19T10:49:49;1.80;;;1.70;;
21014;SDS011;19207;-23.482;-46.500;2023-02-19T10:52:33;2.00;;;1.90;;
21014;SDS011;19207;-23.482;-46.500;2023-02-19T10:55:25;2.08;;;1.90;;
21014;SDS011;19207;-23.482;-46.500;2023-02-19T10:58:23;2.28;;;2.08;;
21014;SDS011;19207;-23.482;-46.500;2023-02-19T11:04:16;2.67;;;2.10;;
21014;SDS011;19207;-23.482;-46.500;2023-02-19T11:07:07;2.53;;;2.33;;
21014;SDS011;19207;-23.482;-46.500;2023-02-19T11:09:55;2.87;;;2.25;;
21014;SDS011;19207;-23.482;-46.500;2023-02-19T11:12:45;2.60;;;2.10;;
21014;SDS011;19207;-23.482;-46.500;2023-02-19T11:15:34;3.50;;;2.12;;
21014;SDS011;19207;-23.482;-46.500;2023-02-19T11:18:22;3.30;;;2.00;;
21014;SDS011;19207;-23.482;-46.500;2023-02-19T11:21:25;2.53;;;2.33;;
21014;SDS011;19207;-23.482;-46.500;2023-02-19T11:24:35;2.33;;;2.12;;
21014;SDS011;19207;-23.482;-46.500;2023-02-19T11:27:24;2.30;;;2.10;;
21014;SDS011;19207;-23.482;-46.500;2023-02-19T11:30:31;2.50;;;2.20;;
21014;SDS011;19207;-23.482;-46.500;2023-02-19T11:33:23;2.20;;;2.00;;
21014;SDS011;19207;-23.482;-46.500;2023-02-19T11:36:17;2.40;;;2.20;;
21014;SDS011;19207;-23.482;-46.500;2023-02-19T11:48:12;2.50;;;2.30;;
21014;SDS011;19207;-23.482;-46.500;2023-02-19T11:51:07;2.65;;;2.40;;
21014;SDS011;19207;-23.482;-46.500;2023-02-19T11:54:08;3.20;;;2.45;;
21014;SDS011;19207;-23.482;-46.500;2023-02-19T12:00:02;5.40;;;2.20;;
21014;SDS011;19207;-23.482;-46.500;2023-02-19T12:11:45;3.35;;;2.37;;
21014;SDS011;19207;-23.482;-46.500;2023-02-19T12:20:42;3.12;;;2.40;;
21014;SDS011;19207;-23.482;-46.500;2023-02-19T12:36:15;3.37;;;2.10;;
21014;SDS011;19207;-23.482;-46.500;2023-02-19T12:44:57;2.95;;;2.10;;
21014;SDS011;19207;-23.482;-46.500;2023-02-19T12:47:50;2.30;;;2.10;;
21014;SDS011;19207;-23.482;-46.500;2023-02-19T12:50:40;2.95;;;2.50;;
21014;SDS011;19207;-23.482;-46.500;2023-02-19T12:53:30;3.17;;;2.40;;
21014;SDS011;19207;-23.482;-46.500;2023-02-19T12:56:20;3.03;;;2.60;;
21014;SDS011;19207;-23.482;-46.500;2023-02-19T12:59:10;5.45;;;2.70;;
21014;SDS011;19207;-23.482;-46.500;2023-02-19T13:02:03;2.47;;;2.28;;
21014;SDS011;19207;-23.482;-46.500;2023-02-19T13:07:57;5.60;;;2.80;;
21014;SDS011;19207;-23.482;-46.500;2023-02-19T13:10:46;5.97;;;2.80;;
21014;SDS011;19207;-23.482;-46.500;2023-02-19T13:13:45;5.55;;;3.37;;
21014;SDS011;19207;-23.482;-46.500;2023-02-19T13:16:36;7.50;;;3.20;;
21014;SDS011;19207;-23.482;-46.500;2023-02-19T13:19:24;4.78;;;2.72;;
21014;SDS011;19207;-23.482;-46.500;2023-02-19T13:22:18;4.62;;;3.10;;
21014;SDS011;19207;-23.482;-46.500;2023-02-19T13:25:38;4.00;;;3.00;;
21014;SDS011;19207;-23.482;-46.500;2023-02-19T13:28:37;3.65;;;2.67;;
21014;SDS011;19207;-23.482;-46.500;2023-02-19T13:37:34;3.30;;;2.30;;
21014;SDS011;19207;-23.482;-46.500;2023-02-19T13:43:32;2.55;;;2.17;;
21014;SDS011;19207;-23.482;-46.500;2023-02-19T13:46:21;4.10;;;2.20;;
21014;SDS011;19207;-23.482;-46.500;2023-02-19T14:02:03;2.55;;;2.35;;
21014;SDS011;19207;-23.482;-46.500;2023-02-19T14:07:36;3.25;;;2.35;;
21014;SDS011;19207;-23.482;-46.500;2023-02-19T14:25:51;3.20;;;2.28;;
21014;SDS011;19207;-23.482;-46.500;2023-02-19T14:28:43;2.85;;;2.50;;
21014;SDS011;19207;-23.482;-46.500;2023-02-19T14:31:32;3.28;;;2.80;;
21014;SDS011;19207;-23.482;-46.500;2023-02-19T14:34:21;3.35;;;2.60;;
21014;SDS011;19207;-23.482;-46.500;2023-02-19T14:37:18;4.78;;;2.62;;
21014;SDS011;19207;-23.482;-46.500;2023-02-19T14:40:08;2.58;;;2.37;;
21014;SDS011;19207;-23.482;-46.500;2023-02-19T14:42:56;2.70;;;2.50;;
21014;SDS011;19207;-23.482;-46.500;2023-02-19T14:45:54;2.65;;;2.30;;
21014;SDS011;19207;-23.482;-46.500;2023-02-19T14:48:45;3.30;;;2.40;;
21014;SDS011;19207;-23.482;-46.500;2023-02-19T14:57:23;2.80;;;2.50;;
21014;SDS011;19207;-23.482;-46.500;2023-02-19T15:03:21;3.42;;;2.70;;
21014;SDS011;19207;-23.482;-46.500;2023-02-19T15:06:11;3.05;;;2.62;;
21014;SDS011;19207;-23.482;-46.500;2023-02-19T15:09:05;2.78;;;2.58;;
21014;SDS011;19207;-23.482;-46.500;2023-02-19T15:11:52;2.90;;;2.62;;
21014;SDS011;19207;-23.482;-46.500;2023-02-19T15:14:39;3.53;;;2.75;;
21014;SDS011;19207;-23.482;-46.500;2023-02-19T15:17:30;2.83;;;2.47;;
21014;SDS011;19207;-23.482;-46.500;2023-02-19T15:20:28;2.30;;;2.10;;
21014;SDS011;19207;-23.482;-46.500;2023-02-19T15:23:21;4.97;;;2.20;;
21014;SDS011;19207;-23.482;-46.500;2023-02-19T15:29:15;2.40;;;2.20;;
21014;SDS011;19207;-23.482;-46.500;2023-02-19T15:32:12;2.62;;;2.30;;
21014;SDS011;19207;-23.482;-46.500;2023-02-19T15:35:02;2.62;;;2.25;;
21014;SDS011;19207;-23.482;-46.500;2023-02-19T15:37:49;2.40;;;2.20;;
21014;SDS011;19207;-23.482;-46.500;2023-02-19T15:40:37;2.60;;;2.20;;
21014;SDS011;19207;-23.482;-46.500;2023-02-19T15:43:26;3.60;;;2.50;;
21014;SDS011;19207;-23.482;-46.500;2023-02-19T15:46:17;2.90;;;2.58;;
21014;SDS011;19207;-23.482;-46.500;2023-02-19T15:49:18;2.65;;;2.45;;
21014;SDS011;19207;-23.482;-46.500;2023-02-19T15:52:08;4.43;;;2.53;;
21014;SDS011;19207;-23.482;-46.500;2023-02-19T15:54:58;2.50;;;2.30;;
21014;SDS011;19207;-23.482;-46.500;2023-02-19T15:57:50;3.17;;;2.85;;
21014;SDS011;19207;-23.482;-46.500;2023-02-19T16:00:47;3.17;;;2.37;;
21014;SDS011;19207;-23.482;-46.500;2023-02-19T16:03:36;3.12;;;2.40;;
21014;SDS011;19207;-23.482;-46.500;2023-02-19T16:06:23;3.05;;;2.60;;
21014;SDS011;19207;-23.482;-46.500;2023-02-19T16:09:21;2.80;;;2.60;;
21014;SDS011;19207;-23.482;-46.500;2023-02-19T16:12:19;2.62;;;2.42;;
21014;SDS011;19207;-23.482;-46.500;2023-02-19T16:15:13;2.72;;;2.53;;
21014;SDS011;19207;-23.482;-46.500;2023-02-19T16:18:01;3.65;;;2.72;;
21014;SDS011;19207;-23.482;-46.500;2023-02-19T16:20:48;2.70;;;2.50;;
21014;SDS011;19207;-23.482;-46.500;2023-02-19T16:23:40;2.70;;;2.50;;
21014;SDS011;19207;-23.482;-46.500;2023-02-19T16:26:28;2.45;;;2.25;;
21014;SDS011;19207;-23.482;-46.500;2023-02-19T16:29:23;2.65;;;2.40;;
21014;SDS011;19207;-23.482;-46.500;2023-02-19T16:32:14;3.95;;;2.60;;
21014;SDS011;19207;-23.482;-46.500;2023-02-19T16:35:02;3.00;;;2.70;;
21014;SDS011;19207;-23.482;-46.500;2023-02-19T16:37:56;3.70;;;2.80;;
21014;SDS011;19207;-23.482;-46.500;2023-02-19T16:43:41;3.72;;;2.92;;
21014;SDS011;19207;-23.482;-46.500;2023-02-19T16:46:29;3.58;;;2.70;;
21014;SDS011;19207;-23.482;-46.500;2023-02-19T16:49:17;2.90;;;2.47;;
21014;SDS011;19207;-23.482;-46.500;2023-02-19T16:52:05;4.85;;;2.40;;
21014;SDS011;19207;-23.482;-46.500;2023-02-19T16:54:52;3.85;;;2.70;;
21014;SDS011;19207;-23.482;-46.500;2023-02-19T16:57:39;3.03;;;2.72;;
21014;SDS011;19207;-23.482;-46.500;2023-02-19T17:00:30;4.15;;;2.75;;
21014;SDS011;19207;-23.482;-46.500;2023-02-19T17:03:19;3.03;;;2.70;;
21014;SDS011;19207;-23.482;-46.500;2023-02-19T17:06:06;3.62;;;3.20;;
21014;SDS011;19207;-23.482;-46.500;2023-02-19T17:08:54;5.30;;;2.80;;
21014;SDS011;19207;-23.482;-46.500;2023-02-19T17:11:43;2.90;;;2.60;;
21014;SDS011;19207;-23.482;-46.500;2023-02-19T17:14:31;3.10;;;2.70;;
21014;SDS011;19207;-23.482;-46.500;2023-02-19T17:17:18;3.55;;;2.70;;
21014;SDS011;19207;-23.482;-46.500;2023-02-19T17:23:03;3.85;;;2.83;;
21014;SDS011;19207;-23.482;-46.500;2023-02-19T17:25:50;3.22;;;2.80;;
21014;SDS011;19207;-23.482;-46.500;2023-02-19T17:28:37;4.22;;;2.87;;
21014;SDS011;19207;-23.482;-46.500;2023-02-19T17:31:24;4.53;;;2.90;;
21014;SDS011;19207;-23.482;-46.500;2023-02-19T17:34:13;3.20;;;2.90;;
21014;SDS011;19207;-23.482;-46.500;2023-02-19T17:37:00;3.78;;;2.90;;
21014;SDS011;19207;-23.482;-46.500;2023-02-19T17:39:47;3.87;;;2.90;;
21014;SDS011;19207;-23.482;-46.500;2023-02-19T17:42:34;3.47;;;2.80;;
21014;SDS011;19207;-23.482;-46.500;2023-02-19T17:45:22;3.92;;;2.85;;
21014;SDS011;19207;-23.482;-46.500;2023-02-19T17:48:12;6.47;;;3.20;;
21014;SDS011;19207;-23.482;-46.500;2023-02-19T17:51:00;3.72;;;3.20;;
21014;SDS011;19207;-23.482;-46.500;2023-02-19T17:53:47;4.28;;;3.40;;
21014;SDS011;19207;-23.482;-46.500;2023-02-19T17:56:34;5.00;;;3.22;;
21014;SDS011;19207;-23.482;-46.500;2023-02-19T17:59:21;4.85;;;3.30;;
21014;SDS011;19207;-23.482;-46.500;2023-02-19T18:02:07;4.68;;;3.22;;
21014;SDS011;19207;-23.482;-46.500;2023-02-19T18:04:54;3.80;;;3.30;;
21014;SDS011;19207;-23.482;-46.500;2023-02-19T18:07:42;5.55;;;3.78;;
21014;SDS011;19207;-23.482;-46.500;2023-02-19T18:10:29;3.67;;;2.95;;
21014;SDS011;19207;-23.482;-46.500;2023-02-19T18:13:16;4.30;;;3.60;;
21014;SDS011;19207;-23.482;-46.500;2023-02-19T18:16:04;4.78;;;3.40;;
21014;SDS011;19207;-23.482;-46.500;2023-02-19T18:18:51;3.83;;;3.20;;
21014;SDS011;19207;-23.482;-46.500;2023-02-19T18:21:39;3.47;;;3.08;;
21014;SDS011;19207;-23.482;-46.500;2023-02-19T18:24:26;3.70;;;3.10;;
21014;SDS011;19207;-23.482;-46.500;2023-02-19T18:27:14;3.72;;;3.05;;
21014;SDS011;19207;-23.482;-46.500;2023-02-19T18:30:03;4.00;;;3.08;;
21014;SDS011;19207;-23.482;-46.500;2023-02-19T18:32:50;4.22;;;3.20;;
21014;SDS011;19207;-23.482;-46.500;2023-02-19T18:35:39;3.80;;;3.03;;
21014;SDS011;19207;-23.482;-46.500;2023-02-19T18:38:26;3.12;;;2.80;;
21014;SDS011;19207;-23.482;-46.500;2023-02-19T18:41:13;3.65;;;2.78;;